AKST,Max TemperatureF,Mean TemperatureF,Min TemperatureF,Max Dew PointF,MeanDew PointF,Min DewpointF,Max Humidity, Mean Humidity, Min Humidity, Max Sea Level PressureIn, Mean Sea Level PressureIn, Min Sea Level PressureIn, Max VisibilityMiles, Mean VisibilityMiles, Min VisibilityMiles, Max Wind SpeedMPH, Mean Wind SpeedMPH, Max Gust SpeedMPH,PrecipitationIn, CloudCover, Events, WindDirDegrees
2013-11-1,34,28,22,33,27,22,0,0,0,30.08,29.98,29.81,10,10,10,10,4,12,0.00,5,,25
2013-11-2,49,37,24,43,35,22,0,0,0,29.90,29.59,29.47,10,10,5,24,13,30,0.05,7,Rain-Snow,113
2013-11-3,49,44,38,43,40,38,0,0,0,29.57,29.47,29.37,10,10,7,20,7,25,0.29,6,Rain,159
2013-11-4,42,40,38,42,39,37,0,0,0,29.62,29.38,29.29,10,8,1,16,6,22,0.16,8,Rain,340
2013-11-5,38,28,18,34,22,16,0,0,0,30.20,30.00,29.66,10,10,10,13,10,21,0.00,2,,349
2013-11-6,42,29,16,34,24,14,0,0,0,30.17,29.88,29.59,10,10,10,25,11,35,0.01,6,Rain,74
2013-11-7,42,35,28,39,34,28,0,0,0,29.99,29.70,29.53,10,9,2,16,4,18,0.29,6,Fog-Rain,226
2013-11-8,43,35,27,43,35,26,0,0,0,30.20,30.16,30.01,10,8,2,15,7,20,T,7,Rain,181
2013-11-9,46,45,43,45,43,42,0,0,0,30.20,30.13,29.98,10,6,3,20,14,26,0.28,8,Rain,195
2013-11-10,45,38,31,41,35,27,0,0,0,29.98,29.91,29.86,10,8,3,17,7,22,0.46,7,Rain-Snow,275
2013-11-11,32,27,21,26,20,16,0,0,0,30.32,30.21,29.99,10,10,9,25,13,31,T,2,,339
2013-11-12,34,24,13,34,22,11,0,0,0,30.30,30.19,30.08,10,7,1,15,6,21,0.22,6,Rain-Snow,129
2013-11-13,43,39,34,43,40,35,0,0,0,30.30,30.23,30.08,9,2,0,20,11,26,0.03,8,Fog-Rain,211
2013-11-14,42,38,33,42,39,33,0,0,0,30.26,30.18,30.14,10,10,4,21,9,28,0.05,8,Rain,257
2013-11-15,39,35,30,39,34,29,0,0,0,30.22,30.08,30.01,10,5,0,20,6,25,0.08,8,Fog-Rain-Snow,331
2013-11-16,31,25,19,25,19,16,0,0,0,30.47,30.41,30.26,10,10,10,24,11,31,0.00,2,,346
2013-11-17,21,16,10,15,9,7,0,0,0,30.48,30.44,30.40,10,10,9,26,10,33,T,1,,347
2013-11-18,19,12,4,8,5,1,0,0,0,30.41,30.37,30.30,10,10,10,15,7,18,0.00,1,,353
2013-11-19,19,11,2,14,7,0,0,0,0,30.31,30.14,29.95,10,10,9,8,3,10,0.00,4,,138
2013-11-20,21,15,8,16,11,4,0,0,0,29.93,29.77,29.64,10,10,10,23,12,28,0.00,5,,11
2013-11-21,29,19,9,25,17,6,0,0,0,29.63,29.22,29.02,10,3,0,24,11,31,0.48,8,Fog-Snow,4
2013-11-22,25,18,10,23,15,7,0,0,0,29.41,29.30,29.19,10,7,1,23,10,30,0.03,7,Snow,172
2013-11-23,30,22,14,28,25,13,0,0,0,29.85,29.60,29.40,10,4,0,26,14,36,0.14,7,Fog-Snow,190
2013-11-24,40,31,21,33,30,19,0,0,0,29.84,29.75,29.70,10,9,2,17,11,23,0.04,8,Rain-Snow,73
2013-11-25,40,31,21,34,30,21,0,0,0,29.80,29.70,29.66,10,10,10,17,7,25,0.00,6,,59
2013-11-26,23,18,12,19,15,10,0,0,0,30.02,29.90,29.80,10,8,0,10,5,13,0.00,4,Fog,335
2013-11-27,22,12,1,16,7,-2,0,0,0,30.05,30.02,29.98,10,10,5,23,4,31,0.00,3,,11
2013-11-28,14,5,-5,7,2,-6,0,0,0,30.23,30.14,30.03,10,10,10,12,6,14,0.00,0,,1
2013-11-29,10,2,-7,4,-3,-9,0,0,0,30.35,30.28,30.23,10,10,10,10,4,13,0.00,1,,7
2013-11-30,13,3,-8,8,-2,-12,0,0,0,30.51,30.42,30.35,10,9,1,15,5,20,0.00,1,Fog,2